Terminal Aerodrome Forecast
Issued by NWS

Home | Current Version | Previous Version | Text Only | Print | Product List | Glossary On
Versions: 1 2 3 4 5 6 7 8 9 10 11 12 13
000
FTUS43 KDLH 272339
TAFBRD
TAF
KBRD 272339Z 2800/2824 16008KT P6SM BKN050
      TEMPO 2801/2803 6SM TSRA BR SCT015CB BKN035CB
     FM280300 00000KT P6SM SCT030
     FM280700 00000KT 3SM BR SCT030
      TEMPO 2807/2811 1/2SM FG BKN005
     FM281400 16006KT P6SM SCT015
     FM281800 16010G16KT P6SM BKN040=

USA.gov is the U.S. government's official web portal to all federal, state and local government web resources and services.